Time;durP1;ratioP1;P1;durP2;ratioP2;P2;SDS_P1;SDS_P2;PMS_P1;PMS_P2;Temp;Humidity;BMP_temperature;BMP_pressure;BME280_temperature;BME280_humidity;BME280_pressure;Samples;Min_cycle;Max_cycle;Signal;HPM_P1;HPM_P2
2021/11/18 00:01:32;;;;;;;;;;;5.70;99.90;;;;;;5009737;28;19960;-68
2021/11/18 00:03:58;;;;;;;;;;;5.70;99.90;;;;;;5008701;28;19960;-67
2021/11/18 00:06:24;;;;;;;;;;;5.70;99.90;;;;;;5025661;28;20544;-67
2021/11/18 00:08:50;;;;;;;;;;;5.70;99.90;;;;;;5027656;28;20013;-67
2021/11/18 00:11:17;;;;;;;;;;;5.80;99.90;;;;;;5029424;28;20332;-68
2021/11/18 00:13:47;;;;;;;;;;;5.80;99.90;;;;;;5028530;28;19917;-68
2021/11/18 00:16:13;;;;;;;;;;;5.80;99.90;;;;;;5029349;28;20336;-67
2021/11/18 00:18:39;;;;;;;;;;;5.90;99.90;;;;;;5025845;28;19955;-68
2021/11/18 00:21:10;;;;;;;;;;;5.90;99.90;;;;;;5021655;28;19913;-67
2021/11/18 00:23:38;;;;;;;;;;;5.90;99.90;;;;;;5026895;28;19997;-67
2021/11/18 00:26:04;;;;;;;;;;;5.90;1.00;;;;;;5029080;28;20271;-68
2021/11/18 00:28:30;;;;;;;;;;;5.90;1.00;;;;;;5029129;28;20000;-68
2021/11/18 00:30:55;;;;;;;;;;;5.90;1.00;;;;;;5029485;28;20012;-66
2021/11/18 00:33:21;;;;;;;;;;;5.90;1.00;;;;;;5026363;28;19955;-68
2021/11/18 00:35:47;;;;;;;;;;;5.90;1.00;;;;;;5028782;28;19913;-67
2021/11/18 00:38:12;;;;;;;;;;;5.90;1.00;;;;;;5027780;28;19919;-67
2021/11/18 00:40:40;;;;;;;;;;;5.90;1.00;;;;;;5011683;28;20004;-67
2021/11/18 00:43:07;;;;;;;;;;;5.90;1.00;;;;;;5008369;28;19916;-68
2021/11/18 00:45:33;;;;;;;;;;;5.90;1.00;;;;;;5009245;28;20380;-68
2021/11/18 00:47:59;;;;;;;;;;;5.90;1.00;;;;;;5009198;28;20103;-67
2021/11/18 00:50:27;;;;;;;;;;;5.90;1.00;;;;;;5009502;28;19956;-67
2021/11/18 00:52:52;;;;;;;;;;;6.00;1.00;;;;;;5007252;28;19917;-68
2021/11/18 00:55:19;;;;;;;;;;;5.90;1.00;;;;;;5009402;28;19920;-67
2021/11/18 00:57:44;;;;;;;;;;;5.90;1.00;;;;;;5008989;28;19920;-67
2021/11/18 01:00:16;;;;;;;;;;;6.00;1.00;;;;;;5009467;28;19917;-67
2021/11/18 01:02:42;;;;;;;;;;;6.00;1.00;;;;;;5008580;28;20333;-67
2021/11/18 01:05:08;;;;;;;;;;;6.00;99.90;;;;;;5014521;28;19931;-67
2021/11/18 01:07:34;;;;;;;;;;;6.00;99.90;;;;;;5030609;28;19960;-67
2021/11/18 01:09:59;;;;;;;;;;;5.90;1.00;;;;;;5031451;28;19948;-67
2021/11/18 01:12:25;;;;;;;;;;;5.90;1.00;;;;;;5032601;28;19913;-67
2021/11/18 01:14:51;;;;;;;;;;;5.90;1.00;;;;;;5033213;28;19920;-68
2021/11/18 01:17:16;;;;;;;;;;;5.90;1.00;;;;;;5033449;28;20023;-67
2021/11/18 01:19:42;;;;;;;;;;;5.90;1.00;;;;;;5021640;28;20058;-67
2021/11/18 01:22:07;;;;;;;;;;;5.90;1.00;;;;;;5031850;28;19929;-67
2021/11/18 01:24:35;;;;;;;;;;;5.90;1.00;;;;;;5030856;28;19919;-68
2021/11/18 01:27:00;;;;;;;;;;;6.00;1.00;;;;;;5032726;28;19909;-67
2021/11/18 01:29:26;;;;;;;;;;;5.90;1.00;;;;;;5032090;28;19916;-68
2021/11/18 01:31:52;;;;;;;;;;;5.90;1.00;;;;;;5031368;28;20020;-68
2021/11/18 01:34:18;;;;;;;;;;;5.90;1.00;;;;;;5030648;28;19995;-67
2021/11/18 01:36:43;;;;;;;;;;;5.80;1.00;;;;;;5032338;28;20030;-67
2021/11/18 01:39:09;;;;;;;;;;;5.80;1.00;;;;;;5025030;28;20364;-68
2021/11/18 01:41:34;;;;;;;;;;;5.80;1.00;;;;;;5012974;28;19920;-68
2021/11/18 01:44:03;;;;;;;;;;;5.80;1.00;;;;;;4992993;28;19968;-67
2021/11/18 01:46:33;;;;;;;;;;;5.80;1.00;;;;;;5012184;28;20009;-67
2021/11/18 01:49:00;;;;;;;;;;;5.80;1.00;;;;;;5012164;28;19920;-67
2021/11/18 01:51:27;;;;;;;;;;;5.80;1.00;;;;;;5011940;28;19909;-67
2021/11/18 01:53:52;;;;;;;;;;;5.90;1.00;;;;;;5009416;28;19914;-67
2021/11/18 01:56:20;;;;;;;;;;;5.90;1.00;;;;;;5012027;28;20252;-66
2021/11/18 01:58:49;;;;;;;;;;;5.90;1.00;;;;;;5011886;28;19969;-67
2021/11/18 02:01:14;;;;;;;;;;;5.90;1.00;;;;;;5011797;28;19909;-67
2021/11/18 02:03:40;;;;;;;;;;;6.00;1.00;;;;;;5011308;28;20373;-67
2021/11/18 02:06:31;;;;;;;;;;;6.00;1.00;;;;;;5024677;28;19913;-67
2021/11/18 02:08:57;;;;;;;;;;;6.00;1.00;;;;;;5025810;28;19913;-67
2021/11/18 02:11:22;;;;;;;;;;;6.00;1.00;;;;;;5031712;28;19917;-67
2021/11/18 02:13:48;;;;;;;;;;;6.00;1.00;;;;;;5030463;28;19913;-67
2021/11/18 02:16:14;;;;;;;;;;;6.10;1.00;;;;;;5031559;28;19924;-68
2021/11/18 02:18:40;;;;;;;;;;;6.10;1.00;;;;;;5019281;28;19916;-68
2021/11/18 02:21:07;;;;;;;;;;;6.10;1.00;;;;;;5011452;28;19910;-67
2021/11/18 02:23:35;;;;;;;;;;;6.10;1.00;;;;;;5009142;28;20463;-67
2021/11/18 02:26:01;;;;;;;;;;;6.10;99.90;;;;;;5010920;28;19913;-67
2021/11/18 02:28:28;;;;;;;;;;;6.10;99.90;;;;;;5010818;28;19979;-68
2021/11/18 02:30:54;;;;;;;;;;;6.10;99.90;;;;;;5011147;28;19921;-68
2021/11/18 02:33:20;;;;;;;;;;;6.10;99.90;;;;;;5010525;28;20466;-69
2021/11/18 02:35:47;;;;;;;;;;;6.00;1.00;;;;;;5011242;28;19940;-67
2021/11/18 02:38:13;;;;;;;;;;;6.00;1.00;;;;;;5009887;28;19955;-68
2021/11/18 02:40:41;;;;;;;;;;;6.00;1.00;;;;;;5010365;28;19921;-67
2021/11/18 02:43:07;;;;;;;;;;;6.00;1.00;;;;;;5010162;28;19914;-68
2021/11/18 02:45:36;;;;;;;;;;;6.00;1.00;;;;;;5011114;28;19910;-67
2021/11/18 02:48:02;;;;;;;;;;;5.90;1.00;;;;;;5011026;28;20000;-67
2021/11/18 02:50:37;;;;;;;;;;;5.90;1.00;;;;;;5010590;28;19913;-68
2021/11/18 02:53:04;;;;;;;;;;;5.90;1.00;;;;;;5009041;28;19925;-67
2021/11/18 02:55:31;;;;;;;;;;;5.90;1.00;;;;;;5018046;28;19917;-69
2021/11/18 02:57:57;;;;;;;;;;;5.90;1.00;;;;;;5022195;28;19916;-68
2021/11/18 03:00:25;;;;;;;;;;;5.80;1.00;;;;;;5030853;28;20297;-68
2021/11/18 03:02:52;;;;;;;;;;;5.90;1.00;;;;;;5029640;28;19944;-68
2021/11/18 03:05:18;;;;;;;;;;;5.90;1.00;;;;;;5023908;28;19948;-69
2021/11/18 03:07:44;;;;;;;;;;;5.90;1.00;;;;;;5009817;28;20686;-67
2021/11/18 03:10:10;;;;;;;;;;;5.80;1.00;;;;;;5010396;28;19920;-67
2021/11/18 03:12:36;;;;;;;;;;;5.80;1.00;;;;;;5009792;28;20359;-69
2021/11/18 03:15:03;;;;;;;;;;;5.90;1.00;;;;;;5010434;28;19964;-68
2021/11/18 03:17:28;;;;;;;;;;;5.90;1.00;;;;;;5010840;28;19921;-67
2021/11/18 03:19:54;;;;;;;;;;;5.90;1.00;;;;;;5010340;28;19914;-69
2021/11/18 03:22:19;;;;;;;;;;;5.90;1.00;;;;;;5009896;28;19909;-67
2021/11/18 03:24:45;;;;;;;;;;;6.00;1.00;;;;;;5008681;28;19952;-68
2021/11/18 03:27:10;;;;;;;;;;;6.00;1.00;;;;;;5010713;28;20412;-68
2021/11/18 03:29:36;;;;;;;;;;;6.00;1.00;;;;;;5009866;28;19917;-69
2021/11/18 03:32:02;;;;;;;;;;;6.10;1.00;;;;;;5010558;28;20425;-68
2021/11/18 03:34:29;;;;;;;;;;;6.10;1.00;;;;;;5010267;28;19956;-69
2021/11/18 03:36:55;;;;;;;;;;;6.10;1.00;;;;;;5010504;28;20326;-69
2021/11/18 03:39:20;;;;;;;;;;;6.10;1.00;;;;;;5008245;28;19971;-68
2021/11/18 03:41:47;;;;;;;;;;;6.10;1.00;;;;;;5010136;28;19910;-69
2021/11/18 03:44:14;;;;;;;;;;;6.10;1.00;;;;;;5009947;28;19944;-67
2021/11/18 03:46:41;;;;;;;;;;;6.00;1.00;;;;;;5011212;28;19979;-68
2021/11/18 03:49:08;;;;;;;;;;;6.10;1.00;;;;;;5009917;28;19909;-67
2021/11/18 03:51:33;;;;;;;;;;;6.10;1.00;;;;;;5010958;28;19955;-68
2021/11/18 03:54:00;;;;;;;;;;;6.10;1.00;;;;;;4990673;28;20008;-68
2021/11/18 03:56:27;;;;;;;;;;;6.10;1.00;;;;;;5020012;28;19916;-68
2021/11/18 03:58:52;;;;;;;;;;;6.10;1.00;;;;;;5029260;28;19920;-69
2021/11/18 04:01:18;;;;;;;;;;;6.10;1.00;;;;;;5031905;28;19913;-68
2021/11/18 04:03:44;;;;;;;;;;;6.00;1.00;;;;;;5030736;28;20336;-67
2021/11/18 04:06:10;;;;;;;;;;;6.00;1.00;;;;;;5016626;28;20369;-67
2021/11/18 04:08:36;;;;;;;;;;;6.00;1.00;;;;;;5009151;28;19920;-68
2021/11/18 04:11:04;;;;;;;;;;;6.00;1.00;;;;;;5010549;28;19920;-68
2021/11/18 04:13:30;;;;;;;;;;;5.90;1.00;;;;;;5010095;28;20378;-67
2021/11/18 04:15:56;;;;;;;;;;;5.90;1.00;;;;;;5011745;28;20005;-69
2021/11/18 04:18:22;;;;;;;;;;;5.90;1.00;;;;;;5010677;28;20037;-67
2021/11/18 04:20:49;;;;;;;;;;;5.90;1.00;;;;;;5010153;28;19976;-67
2021/11/18 04:23:19;;;;;;;;;;;6.00;1.00;;;;;;5007998;28;20005;-66
2021/11/18 04:25:44;;;;;;;;;;;6.00;1.00;;;;;;5009770;28;19913;-67
2021/11/18 04:28:10;;;;;;;;;;;6.00;1.00;;;;;;5009905;28;19909;-66
2021/11/18 04:30:47;;;;;;;;;;;6.00;1.00;;;;;;4992568;28;20524;-69
2021/11/18 04:33:13;;;;;;;;;;;6.10;1.00;;;;;;5008950;28;19970;-69
2021/11/18 04:35:38;;;;;;;;;;;6.10;1.00;;;;;;5010240;28;19913;-67
2021/11/18 04:38:04;;;;;;;;;;;6.10;1.00;;;;;;5009189;28;19917;-67
2021/11/18 04:40:32;;;;;;;;;;;6.00;1.00;;;;;;5010340;28;19914;-69
2021/11/18 04:42:58;;;;;;;;;;;6.00;1.00;;;;;;5012882;28;19929;-68
2021/11/18 04:45:23;;;;;;;;;;;6.00;1.00;;;;;;5013126;28;20016;-68
2021/11/18 04:47:49;;;;;;;;;;;6.00;1.00;;;;;;5013003;28;19947;-68
2021/11/18 04:50:14;;;;;;;;;;;5.90;1.00;;;;;;5013522;28;19909;-67
2021/11/18 04:52:40;;;;;;;;;;;5.90;1.00;;;;;;5011703;28;19971;-66
2021/11/18 04:55:07;;;;;;;;;;;5.90;1.00;;;;;;5012567;28;20027;-66
2021/11/18 04:57:33;;;;;;;;;;;5.90;1.00;;;;;;5013353;28;19921;-66
2021/11/18 04:59:58;;;;;;;;;;;5.90;1.00;;;;;;5013223;28;19917;-68
2021/11/18 05:02:24;;;;;;;;;;;5.90;1.00;;;;;;5012799;28;20533;-67
2021/11/18 05:04:50;;;;;;;;;;;5.90;1.00;;;;;;5015645;28;19909;-67
2021/11/18 05:07:17;;;;;;;;;;;5.90;1.00;;;;;;5033304;28;20282;-67
2021/11/18 05:09:43;;;;;;;;;;;6.00;1.00;;;;;;5031555;28;19924;-67
2021/11/18 05:12:08;;;;;;;;;;;6.00;1.00;;;;;;5033259;28;20350;-67
2021/11/18 05:14:34;;;;;;;;;;;6.00;1.00;;;;;;5032481;28;19971;-68
2021/11/18 05:16:59;;;;;;;;;;;6.00;1.00;;;;;;5032336;28;19913;-68
2021/11/18 05:19:26;;;;;;;;;;;6.00;1.00;;;;;;5023006;28;20377;-66
2021/11/18 05:21:51;;;;;;;;;;;6.00;1.00;;;;;;5030938;28;20344;-67
2021/11/18 05:24:17;;;;;;;;;;;6.00;1.00;;;;;;5030767;28;19913;-67
2021/11/18 05:26:43;;;;;;;;;;;6.00;1.00;;;;;;5032404;28;19935;-66
2021/11/18 05:29:08;;;;;;;;;;;5.90;1.00;;;;;;5012942;28;19990;-67
2021/11/18 05:31:34;;;;;;;;;;;5.90;1.00;;;;;;5006246;28;19917;-67
2021/11/18 05:34:00;;;;;;;;;;;5.90;1.00;;;;;;5010971;28;19957;-67
2021/11/18 05:36:26;;;;;;;;;;;5.90;1.00;;;;;;5011662;28;19966;-68
2021/11/18 05:38:52;;;;;;;;;;;5.90;1.00;;;;;;5010006;28;19944;-67
2021/11/18 05:41:17;;;;;;;;;;;5.90;1.00;;;;;;5010210;28;19913;-67
2021/11/18 05:43:43;;;;;;;;;;;5.80;1.00;;;;;;4992130;28;19913;-67
2021/11/18 05:46:12;;;;;;;;;;;5.80;1.00;;;;;;5011365;28;19936;-67
2021/11/18 05:48:38;;;;;;;;;;;5.80;1.00;;;;;;5011680;28;19917;-67
2021/11/18 05:51:03;;;;;;;;;;;5.80;1.00;;;;;;5011913;28;19939;-67
2021/11/18 05:53:31;;;;;;;;;;;5.80;1.00;;;;;;5009169;28;20327;-69
2021/11/18 05:55:57;;;;;;;;;;;5.90;1.00;;;;;;5011435;28;19924;-69
2021/11/18 05:58:23;;;;;;;;;;;5.90;1.00;;;;;;5011437;28;19913;-68
2021/11/18 06:00:49;;;;;;;;;;;5.90;1.00;;;;;;5010479;28;19928;-68
2021/11/18 06:03:15;;;;;;;;;;;5.90;1.00;;;;;;5010914;28;19913;-68
2021/11/18 06:05:41;;;;;;;;;;;6.00;1.00;;;;;;5012507;28;20554;-70
2021/11/18 06:08:06;;;;;;;;;;;6.00;1.00;;;;;;5011184;28;19924;-69
2021/11/18 06:10:33;;;;;;;;;;;6.00;1.00;;;;;;5012064;28;19910;-69
2021/11/18 06:13:00;;;;;;;;;;;6.00;1.00;;;;;;5011396;28;19924;-69
2021/11/18 06:15:26;;;;;;;;;;;6.00;1.00;;;;;;5011319;28;20000;-67
2021/11/18 06:17:51;;;;;;;;;;;6.00;1.00;;;;;;5011098;28;19924;-68
2021/11/18 06:20:18;;;;;;;;;;;6.00;1.00;;;;;;5011666;28;19921;-69
2021/11/18 06:22:44;;;;;;;;;;;5.90;1.00;;;;;;5009576;28;19914;-69
2021/11/18 06:25:10;;;;;;;;;;;5.90;1.00;;;;;;5010408;28;19917;-71
2021/11/18 06:27:37;;;;;;;;;;;5.90;1.00;;;;;;5009698;28;19920;-70
2021/11/18 06:30:04;;;;;;;;;;;5.90;1.00;;;;;;5009015;28;19952;-70
2021/11/18 06:32:29;;;;;;;;;;;5.90;1.00;;;;;;5010467;28;19913;-70
2021/11/18 06:34:57;;;;;;;;;;;5.90;1.00;;;;;;5008498;28;19921;-68
2021/11/18 06:37:23;;;;;;;;;;;5.90;1.00;;;;;;5008850;28;19921;-70
2021/11/18 06:39:48;;;;;;;;;;;5.90;1.00;;;;;;5006780;28;20263;-70
2021/11/18 06:42:14;;;;;;;;;;;5.80;1.00;;;;;;5008914;28;19920;-70
2021/11/18 06:44:40;;;;;;;;;;;5.80;1.00;;;;;;5009552;28;19918;-68
2021/11/18 06:47:06;;;;;;;;;;;5.80;1.00;;;;;;4990939;28;19910;-68
2021/11/18 06:49:31;;;;;;;;;;;5.80;1.00;;;;;;5008323;28;19923;-69
2021/11/18 06:51:57;;;;;;;;;;;5.80;1.00;;;;;;5002664;28;19909;-66
2021/11/18 06:54:22;;;;;;;;;;;5.80;1.00;;;;;;5005687;28;19952;-66
2021/11/18 06:56:48;;;;;;;;;;;5.80;1.00;;;;;;5017821;28;19924;-69
2021/11/18 06:59:14;;;;;;;;;;;5.90;1.00;;;;;;5027183;28;19917;-69
2021/11/18 07:01:39;;;;;;;;;;;6.00;1.00;;;;;;5027657;28;19909;-69
2021/11/18 07:04:08;;;;;;;;;;;6.00;1.00;;;;;;5025680;28;19910;-69
2021/11/18 07:06:35;;;;;;;;;;;6.10;1.00;;;;;;5010438;28;19980;-66
2021/11/18 07:09:03;;;;;;;;;;;6.10;1.00;;;;;;5006103;28;19983;-69
2021/11/18 07:11:29;;;;;;;;;;;6.20;1.00;;;;;;5007907;28;19913;-69
2021/11/18 07:13:54;;;;;;;;;;;6.30;1.00;;;;;;5006404;28;19913;-66
2021/11/18 07:16:21;;;;;;;;;;;6.40;1.00;;;;;;5007194;28;19937;-67
2021/11/18 07:18:46;;;;;;;;;;;6.40;1.00;;;;;;4989427;28;19910;-68
2021/11/18 07:21:13;;;;;;;;;;;6.40;1.00;;;;;;4990018;28;19936;-67
2021/11/18 07:23:39;;;;;;;;;;;6.50;1.00;;;;;;5005656;28;20259;-67
2021/11/18 07:26:05;;;;;;;;;;;6.50;1.00;;;;;;5007383;28;19913;-68
2021/11/18 07:28:32;;;;;;;;;;;6.50;99.90;;;;;;5007230;28;19971;-67
2021/11/18 07:31:00;;;;;;;;;;;6.50;99.90;;;;;;5007061;28;20337;-67
2021/11/18 07:33:27;;;;;;;;;;;6.50;99.90;;;;;;5006755;28;20416;-68
2021/11/18 07:35:53;;;;;;;;;;;6.50;99.90;;;;;;4992824;28;19917;-67
2021/11/18 07:38:20;;;;;;;;;;;6.50;99.90;;;;;;4991222;28;19941;-66
2021/11/18 07:40:46;;;;;;;;;;;6.60;99.90;;;;;;5001104;28;19953;-68
2021/11/18 07:43:13;;;;;;;;;;;6.60;99.90;;;;;;4998134;28;19991;-69
2021/11/18 07:45:38;;;;;;;;;;;6.60;99.90;;;;;;5009450;28;19976;-68
2021/11/18 07:48:04;;;;;;;;;;;6.60;99.90;;;;;;5014667;28;19964;-67
2021/11/18 07:50:30;;;;;;;;;;;6.70;99.90;;;;;;5012057;28;20032;-68
2021/11/18 07:52:57;;;;;;;;;;;6.80;99.90;;;;;;4989392;28;19924;-68
2021/11/18 07:55:22;;;;;;;;;;;6.80;99.90;;;;;;5008751;28;19936;-67
2021/11/18 07:57:49;;;;;;;;;;;6.80;99.90;;;;;;5009153;28;19909;-68
2021/11/18 08:00:17;;;;;;;;;;;6.90;1.00;;;;;;5009166;28;20258;-67
2021/11/18 08:02:44;;;;;;;;;;;6.90;40.80;;;;;;5007484;28;20028;-68
2021/11/18 08:05:10;;;;;;;;;;;6.90;1.00;;;;;;5015333;28;19931;-68
2021/11/18 08:07:36;;;;;;;;;;;7.00;1.00;;;;;;5028736;28;19909;-68
2021/11/18 08:10:02;;;;;;;;;;;7.10;1.00;;;;;;5028398;28;19963;-68
2021/11/18 08:12:28;;;;;;;;;;;7.20;1.00;;;;;;5028929;28;20589;-68
2021/11/18 08:14:54;;;;;;;;;;;7.30;1.00;;;;;;5054013;22;19973;-68
2021/11/18 08:17:19;;;;;;;;;;;7.40;1.00;;;;;;5030458;28;19960;-69
2021/11/18 08:19:45;;;;;;;;;;;7.50;99.90;;;;;;5041964;28;20008;-68
2021/11/18 08:22:10;;;;;;;;;;;7.50;1.00;;;;;;5052307;28;19948;-69
2021/11/18 08:24:36;;;;;;;;;;;7.60;1.00;;;;;;5050924;28;19913;-68
2021/11/18 08:27:02;;;;;;;;;;;7.70;1.00;;;;;;5052845;28;20102;-67
2021/11/18 08:29:29;;;;;;;;;;;7.90;99.90;;;;;;5052016;28;20269;-68
2021/11/18 08:31:55;;;;;;;;;;;8.00;34.70;;;;;;5052240;28;19963;-67
2021/11/18 08:34:21;;;;;;;;;;;8.00;1.00;;;;;;5050765;28;19931;-68
2021/11/18 08:36:47;;;;;;;;;;;8.00;1.00;;;;;;5052397;28;19909;-68
2021/11/18 08:39:22;;;;;;;;;;;8.10;1.00;;;;;;5038852;28;19932;-68
2021/11/18 08:41:48;;;;;;;;;;;8.20;98.80;;;;;;5012762;28;19905;-67
2021/11/18 08:44:14;;;;;;;;;;;8.30;38.30;;;;;;5015586;28;19963;-68
2021/11/18 08:46:39;;;;;;;;;;;8.40;1.00;;;;;;5032267;28;20589;-67
2021/11/18 08:49:05;;;;;;;;;;;8.50;1.00;;;;;;5032012;28;19936;-68
2021/11/18 08:51:33;;;;;;;;;;;8.80;99.90;;;;;;5032574;28;19959;-69
2021/11/18 08:53:59;;;;;;;;;;;9.30;1.00;;;;;;5028966;28;19936;-68
2021/11/18 08:56:25;;;;;;;;;;;9.60;99.90;;;;;;5012781;28;19909;-69
2021/11/18 08:58:55;;;;;;;;;;;9.80;1.00;;;;;;5011997;28;19941;-69
2021/11/18 09:01:30;;;;;;;;;;;10.10;1.00;;;;;;5011974;28;19925;-68
2021/11/18 09:03:57;;;;;;;;;;;10.40;99.90;;;;;;5011341;28;19916;-68
2021/11/18 09:06:23;;;;;;;;;;;10.70;75.70;;;;;;5043459;28;19987;-68
2021/11/18 09:08:49;;;;;;;;;;;11.30;1.00;;;;;;5050203;28;20007;-67
2021/11/18 09:11:15;;;;;;;;;;;12.10;1.00;;;;;;5051710;28;20003;-66
2021/11/18 09:13:41;;;;;;;;;;;12.90;1.00;;;;;;5051033;28;19935;-69
2021/11/18 09:16:09;;;;;;;;;;;13.50;1.00;;;;;;5052053;28;19916;-69
2021/11/18 09:18:38;;;;;;;;;;;13.80;1.00;;;;;;5049473;28;19909;-68
2021/11/18 09:21:04;;;;;;;;;;;13.80;99.90;;;;;;5035683;28;19920;-68
2021/11/18 09:23:32;;;;;;;;;;;13.50;99.90;;;;;;5050157;28;20336;-69
2021/11/18 09:25:57;;;;;;;;;;;13.30;99.90;;;;;;5051465;28;19920;-69
2021/11/18 09:28:24;;;;;;;;;;;13.00;99.90;;;;;;5050570;28;19909;-68
2021/11/18 09:30:52;;;;;;;;;;;12.70;99.90;;;;;;5051703;28;19939;-68
2021/11/18 09:33:18;;;;;;;;;;;12.50;99.90;;;;;;5050251;28;19912;-68
2021/11/18 09:35:46;;;;;;;;;;;12.10;99.90;;;;;;5051850;28;19939;-68
2021/11/18 09:38:12;;;;;;;;;;;11.80;99.90;;;;;;5050880;28;19931;-69
2021/11/18 09:40:42;;;;;;;;;;;11.40;99.90;;;;;;5016218;28;19914;-68
2021/11/18 09:43:24;;;;;;;;;;;11.20;99.90;;;;;;5010794;28;19909;-68
2021/11/18 09:45:58;;;;;;;;;;;11.00;99.90;;;;;;5027618;28;19909;-69
2021/11/18 09:48:23;;;;;;;;;;;10.80;1.00;;;;;;5031534;28;19909;-68
2021/11/18 09:50:48;;;;;;;;;;;10.70;1.00;;;;;;5031284;28;19968;-68
2021/11/18 09:53:14;;;;;;;;;;;10.80;1.00;;;;;;5029534;28;19992;-68
2021/11/18 09:55:58;;;;;;;;;;;10.60;1.00;;;;;;5016365;28;19932;-68
2021/11/18 09:58:36;;;;;;;;;;;10.40;1.00;;;;;;5011172;28;19910;-68
2021/11/18 10:01:08;;;;;;;;;;;10.30;1.00;;;;;;5010870;28;20042;-69
2021/11/18 10:03:54;;;;;;;;;;;10.10;1.00;;;;;;5010805;28;19925;-67
2021/11/18 10:06:27;;;;;;;;;;;10.10;1.00;;;;;;5042161;28;20265;-67
2021/11/18 10:08:59;;;;;;;;;;;9.80;1.00;;;;;;5049868;28;19928;-68
2021/11/18 10:11:43;;;;;;;;;;;9.90;1.00;;;;;;5050508;28;20007;-66
2021/11/18 10:14:17;;;;;;;;;;;9.90;1.00;;;;;;5050053;28;20390;-69
2021/11/18 10:16:50;;;;;;;;;;;10.10;1.00;;;;;;5051111;28;20335;-68
2021/11/18 10:19:22;;;;;;;;;;;10.20;1.00;;;;;;5050427;28;19912;-69
2021/11/18 10:21:48;;;;;;;;;;;10.40;1.00;;;;;;5049803;28;19909;-69
2021/11/18 10:24:21;;;;;;;;;;;10.40;1.00;;;;;;5049035;28;19951;-69
2021/11/18 10:27:09;;;;;;;;;;;10.40;1.00;;;;;;5050726;28;19935;-67
2021/11/18 10:29:37;;;;;;;;;;;10.30;1.00;;;;;;5049881;28;19948;-68
2021/11/18 10:32:09;;;;;;;;;;;10.40;1.00;;;;;;5049454;28;19917;-68
2021/11/18 10:34:50;;;;;;;;;;;10.40;1.00;;;;;;5050225;28;19922;-68
2021/11/18 10:37:20;;;;;;;;;;;10.40;1.00;;;;;;5050413;28;20345;-68
2021/11/18 10:40:00;;;;;;;;;;;10.40;1.00;;;;;;5027719;28;19917;-69
2021/11/18 10:42:37;;;;;;;;;;;10.30;1.00;;;;;;5009427;28;19910;-69
2021/11/18 10:45:02;;;;;;;;;;;10.40;1.00;;;;;;5020274;28;20459;-68
2021/11/18 10:47:47;;;;;;;;;;;10.40;1.00;;;;;;5030438;28;19956;-66
2021/11/18 10:50:12;;;;;;;;;;;10.50;1.00;;;;;;5029864;28;19913;-68
2021/11/18 10:52:40;;;;;;;;;;;10.50;1.00;;;;;;5028532;28;19924;-68
2021/11/18 10:55:20;;;;;;;;;;;10.60;1.00;;;;;;5033382;28;20031;-68
2021/11/18 10:57:54;;;;;;;;;;;10.60;1.00;;;;;;5040848;28;19909;-68
2021/11/18 11:00:23;;;;;;;;;;;10.60;1.00;;;;;;5049861;28;19974;-67
2021/11/18 11:02:48;;;;;;;;;;;10.60;1.00;;;;;;5048268;28;19913;-68
2021/11/18 11:05:23;;;;;;;;;;;10.70;1.00;;;;;;5043294;28;19909;-67
2021/11/18 11:07:49;;;;;;;;;;;10.80;1.00;;;;;;5028043;28;20243;-68
2021/11/18 11:10:20;;;;;;;;;;;10.90;1.00;;;;;;5028667;28;19913;-68
2021/11/18 11:12:50;;;;;;;;;;;11.00;1.00;;;;;;5028399;28;19999;-67
2021/11/18 11:15:21;;;;;;;;;;;11.10;1.00;;;;;;5029208;28;20223;-68
2021/11/18 11:17:49;;;;;;;;;;;11.10;1.00;;;;;;5029650;28;19909;-69
2021/11/18 11:20:18;;;;;;;;;;;11.20;1.00;;;;;;5029619;28;19935;-68
2021/11/18 11:22:49;;;;;;;;;;;11.00;1.00;;;;;;5027515;28;19924;-67
2021/11/18 11:25:20;;;;;;;;;;;11.00;1.00;;;;;;5029111;28;19909;-67
2021/11/18 11:27:56;;;;;;;;;;;10.80;1.00;;;;;;5028963;28;19917;-67
2021/11/18 11:30:40;;;;;;;;;;;10.80;1.00;;;;;;5029284;28;19913;-68
2021/11/18 11:33:16;;;;;;;;;;;10.80;1.00;;;;;;5028184;28;19909;-68
2021/11/18 11:35:42;;;;;;;;;;;10.90;1.00;;;;;;5029816;28;19958;-68
2021/11/18 11:38:08;;;;;;;;;;;11.00;1.00;;;;;;5026972;28;20344;-67
2021/11/18 11:40:42;;;;;;;;;;;11.00;1.00;;;;;;5028405;28;20020;-69
2021/11/18 11:43:26;;;;;;;;;;;11.10;1.00;;;;;;5027954;28;19909;-66
2021/11/18 11:46:17;;;;;;;;;;;11.20;1.00;;;;;;5029233;28;20324;-68
2021/11/18 11:48:51;;;;;;;;;;;11.40;1.00;;;;;;5027023;28;19936;-68
2021/11/18 11:51:35;;;;;;;;;;;11.50;1.00;;;;;;5028886;28;19952;-68
2021/11/18 11:54:19;;;;;;;;;;;11.30;1.00;;;;;;5025538;28;20319;-68
2021/11/18 11:56:46;;;;;;;;;;;11.20;1.00;;;;;;5010060;28;19914;-69
2021/11/18 11:59:22;;;;;;;;;;;11.10;1.00;;;;;;5008711;28;19921;-68
2021/11/18 12:02:00;;;;;;;;;;;11.10;1.00;;;;;;5008832;28;20019;-68
2021/11/18 12:04:33;;;;;;;;;;;11.00;1.00;;;;;;5008466;28;19910;-68
2021/11/18 12:07:06;;;;;;;;;;;11.00;1.00;;;;;;5009692;28;19917;-68
2021/11/18 12:09:40;;;;;;;;;;;10.90;1.00;;;;;;5006612;28;19964;-68
2021/11/18 12:12:24;;;;;;;;;;;10.80;1.00;;;;;;5008048;28;19910;-68
2021/11/18 12:14:50;;;;;;;;;;;10.80;1.00;;;;;;5008655;28;19949;-68
2021/11/18 12:17:21;;;;;;;;;;;10.70;1.00;;;;;;5008877;28;20375;-68
2021/11/18 12:19:48;;;;;;;;;;;10.60;1.00;;;;;;5036690;28;19959;-68
2021/11/18 12:22:32;;;;;;;;;;;10.50;1.00;;;;;;5047511;28;19913;-69
2021/11/18 12:24:59;;;;;;;;;;;10.40;1.00;;;;;;5045040;28;19913;-67
2021/11/18 12:27:26;;;;;;;;;;;10.40;1.00;;;;;;5048799;28;19909;-69
2021/11/18 12:30:10;;;;;;;;;;;10.30;1.00;;;;;;5048985;28;20344;-69
2021/11/18 12:32:37;;;;;;;;;;;10.20;1.00;;;;;;5047452;28;19987;-68
2021/11/18 12:35:12;;;;;;;;;;;10.20;1.00;;;;;;5048411;28;20334;-67
2021/11/18 12:37:46;;;;;;;;;;;10.10;1.00;;;;;;5048086;28;19912;-69
2021/11/18 12:40:30;;;;;;;;;;;10.10;1.00;;;;;;5033382;28;19917;-67
2021/11/18 12:42:58;;;;;;;;;;;10.10;1.00;;;;;;5026721;28;20567;-69
2021/11/18 12:45:33;;;;;;;;;;;10.10;1.00;;;;;;5028701;28;20398;-67
2021/11/18 12:48:04;;;;;;;;;;;10.10;1.00;;;;;;5028609;28;20354;-68
2021/11/18 12:50:36;;;;;;;;;;;10.10;1.00;;;;;;5027883;28;19934;-69
2021/11/18 12:53:10;;;;;;;;;;;10.00;1.00;;;;;;5025976;28;19929;-68
2021/11/18 12:55:43;;;;;;;;;;;10.00;1.00;;;;;;5013328;28;19914;-68
2021/11/18 12:58:24;;;;;;;;;;;10.00;1.00;;;;;;5008504;28;19932;-68
2021/11/18 13:01:01;;;;;;;;;;;9.90;1.00;;;;;;5008669;28;20580;-68
2021/11/18 13:03:41;;;;;;;;;;;9.90;1.00;;;;;;5010971;28;19909;-68
2021/11/18 13:06:07;;;;;;;;;;;9.80;1.00;;;;;;5038712;28;19912;-67
2021/11/18 13:08:38;;;;;;;;;;;9.80;1.00;;;;;;5049665;28;19920;-68
2021/11/18 13:11:22;;;;;;;;;;;9.80;1.00;;;;;;5051306;28;19913;-69
2021/11/18 13:13:48;;;;;;;;;;;9.70;1.00;;;;;;5050691;28;19908;-69
2021/11/18 13:16:29;;;;;;;;;;;9.70;1.00;;;;;;5051658;28;19924;-69
2021/11/18 13:19:17;;;;;;;;;;;9.70;1.00;;;;;;5052031;28;19916;-67
2021/11/18 13:21:54;;;;;;;;;;;9.70;1.00;;;;;;5052245;28;20063;-68
2021/11/18 13:24:37;;;;;;;;;;;9.70;1.00;;;;;;5050008;28;20000;-68
2021/11/18 13:27:03;;;;;;;;;;;9.60;1.00;;;;;;5052139;28;19913;-69
2021/11/18 13:29:31;;;;;;;;;;;9.70;1.00;;;;;;5051773;28;20370;-69
2021/11/18 13:31:56;;;;;;;;;;;9.80;1.00;;;;;;5048453;28;19961;-69
2021/11/18 13:34:27;;;;;;;;;;;9.80;1.00;;;;;;5028582;28;20373;-70
2021/11/18 13:37:06;;;;;;;;;;;9.90;1.00;;;;;;5031991;28;20407;-69
2021/11/18 13:39:38;;;;;;;;;;;9.80;1.00;;;;;;5029547;28;20270;-69
2021/11/18 13:42:19;;;;;;;;;;;9.70;1.00;;;;;;5023558;28;20311;-68
2021/11/18 13:44:49;;;;;;;;;;;9.70;1.00;;;;;;5023982;28;19909;-69
2021/11/18 13:47:21;;;;;;;;;;;9.70;1.00;;;;;;5012709;28;20000;-68
2021/11/18 13:49:48;;;;;;;;;;;9.80;1.00;;;;;;5012359;28;20469;-70
2021/11/18 13:52:18;;;;;;;;;;;9.80;1.00;;;;;;5011820;28;19919;-69
2021/11/18 13:54:53;;;;;;;;;;;9.80;1.00;;;;;;5018834;28;19909;-70
2021/11/18 13:57:28;;;;;;;;;;;9.80;1.00;;;;;;5047303;28;19935;-70
2021/11/18 13:59:56;;;;;;;;;;;9.80;1.00;;;;;;5056752;28;20021;-69
2021/11/18 14:02:24;;;;;;;;;;;9.80;1.00;;;;;;5052204;28;19916;-70
2021/11/18 14:04:58;;;;;;;;;;;9.80;1.00;;;;;;5049206;28;19918;-70
2021/11/18 14:07:24;;;;;;;;;;;9.80;1.00;;;;;;5032581;28;20396;-70
2021/11/18 14:09:52;;;;;;;;;;;9.90;1.00;;;;;;5030991;28;19948;-71
2021/11/18 14:12:24;;;;;;;;;;;9.90;1.00;;;;;;5032845;28;19916;-70
2021/11/18 14:14:52;;;;;;;;;;;9.90;1.00;;;;;;5031221;28;19909;-70
2021/11/18 14:17:22;;;;;;;;;;;9.80;1.00;;;;;;5032488;28;19928;-69
2021/11/18 14:20:13;;;;;;;;;;;9.80;1.00;;;;;;5031508;28;19992;-69
2021/11/18 14:22:39;;;;;;;;;;;9.60;1.00;;;;;;5015038;28;20254;-69
2021/11/18 14:25:24;;;;;;;;;;;9.40;1.00;;;;;;5030684;28;19913;-69
2021/11/18 14:27:53;;;;;;;;;;;9.20;1.00;;;;;;5030670;28;20456;-69
2021/11/18 14:30:32;;;;;;;;;;;9.10;1.00;;;;;;5031527;28;20298;-69
2021/11/18 14:33:04;;;;;;;;;;;9.00;1.00;;;;;;5028720;28;19925;-69
2021/11/18 14:35:35;;;;;;;;;;;8.90;1.00;;;;;;5031750;28;19922;-69
2021/11/18 14:38:03;;;;;;;;;;;8.80;1.00;;;;;;5030357;28;19914;-69
2021/11/18 14:40:40;;;;;;;;;;;8.70;1.00;;;;;;5047957;28;20007;-69
2021/11/18 14:43:14;;;;;;;;;;;8.60;1.00;;;;;;5050644;28;19909;-69
2021/11/18 14:45:40;;;;;;;;;;;8.50;1.00;;;;;;5022005;28;19913;-69
2021/11/18 14:48:32;;;;;;;;;;;8.40;12.40;;;;;;5012381;28;19914;-69